Aristotel — YP3156 — position and weather

sailwx.info

Track history (hours):
 
Tides and Currents Weather Stations Pressure Air Temp Water Temp Dewpoint Dewpoint Depression Visibility Wind Speed Wind Dir Waves Ship Positions

Aristotel

Last reported at 2018-Jul-14 23:27 UTC. Time now 2018-Jul-20 08:23 UTC.
Position N 44°30' E 022°12'.

Length 110 m; draft 0.2 m.

Type: Tanker. MMSI: 264163156.

Date/timePositionNaut miles runAvg speedWind from/ knotsBaromVisibWave heightAir tempDewpointWater temp
2018-Jul-14 23:27N 44°30' E 022°12'3 7.4
2018-Jul-14 23:01N 44°28' E 022°08'4 8.5
2018-Jul-14 22:31N 44°32' E 022°04'4 8.4
2018-Jul-14 22:00N 44°35' E 022°02'15 8.6
2018-Jul-14 20:15N 44°40' E 021°41'312.5
2018-Jul-14 20:01N 44°42' E 021°39'3 6.8
2018-Jul-14 19:31N 44°45' E 021°36'21 3.1
2018-Jul-14 12:39N 44°44' E 021°06'1 9.3
2018-Jul-14 12:30N 44°43' E 021°04'3 6.9
2018-Jul-14 12:00N 44°43' E 020°59'4 9.0
2018-Jul-14 11:31N 44°40' E 020°55'5 9.4
2018-Jul-14 11:00N 44°39' E 020°48'5 9.2
2018-Jul-14 10:30N 44°42' E 020°42'5 9.5
2018-Jul-14 10:01N 44°45' E 020°38'4 8.6
2018-Jul-14 09:31N 44°50' E 020°39'4 7.8
2018-Jul-14 09:01N 44°51' E 020°33'4 8.1
2018-Jul-14 08:31N 44°50' E 020°28'5 9.3
2018-Jul-14 08:00N 44°52' E 020°22'5 9.4
2018-Jul-14 07:30N 44°56' E 020°19'4 7.4
2018-Jul-14 07:00N 44°60' E 020°19'4 7.5
2018-Jul-14 06:30N 45°03' E 020°21'8 9.3
2018-Jul-14 05:38N 45°10' E 020°14'1 9.2
2018-Jul-14 05:29N 45°11' E 020°12'4 8.7
2018-Jul-14 04:59N 45°10' E 020°06'5 9.4
2018-Jul-14 04:30N 45°11' E 019°60'5 9.2
2018-Jul-14 04:01N 45°14' E 019°55'3 5.5
2018-Jul-14 03:31N 45°15' E 019°52'4 8.4
2018-Jul-14 03:01N 45°14' E 019°46'14 8.2
2018-Jul-14 01:20N 45°14' E 019°26'3 9.7
2018-Jul-14 01:00N 45°14' E 019°22'5 9.7
2018-Jul-14 00:30N 45°15' E 019°15'5 9.8
2018-Jul-14 00:01N 45°17' E 019°09'4 8.6
2018-Jul-13 23:30N 45°20' E 019°05'5 9.3
2018-Jul-13 23:00N 45°22' E 018°59'3 6.4
2018-Jul-13 22:31N 45°25' E 019°02'4 8.3
2018-Jul-13 22:01N 45°28' E 018°59'4 7.2
2018-Jul-13 21:31N 45°29' E 019°04'3 5.9
2018-Jul-13 21:01N 45°32' E 019°03'3 6.5
2018-Jul-13 20:31N 45°32' E 018°58'4 8.4
2018-Jul-13 20:00N 45°34' E 018°53'4 8.0
2018-Jul-13 19:31N 45°38' E 018°56'3 6.6
2018-Jul-13 19:00N 45°41' E 018°56'  
2018-Jul-11 08:10N 45°56' E 018°47'2 6.1
2018-Jul-11 07:51N 45°54' E 018°49'2 5.9
2018-Jul-11 07:28N 45°52' E 018°50'2 0.8
2018-Jul-11 05:21N 45°51' E 018°52'1 3.3
2018-Jul-11 04:57N 45°50' E 018°51'2 4.7
2018-Jul-11 04:31N 45°48' E 018°51'3 5.9
2018-Jul-11 04:01N 45°45' E 018°54'3 6.7
2018-Jul-11 03:31N 45°42' E 018°55'3 6.2
2018-Jul-11 03:01N 45°40' E 018°58'3 6.5
2018-Jul-11 02:31N 45°37' E 018°55'3 6.2
2018-Jul-11 02:01N 45°34' E 018°53'3 6.1
2018-Jul-11 01:31N 45°32' E 018°56'3 5.9
2018-Jul-11 01:01N 45°33' E 019°00'2 4.7
2018-Jul-11 00:31N 45°32' E 019°03'3 5.3
2018-Jul-11 00:00N 45°30' E 019°06'3 6.2
2018-Jul-10 23:31N 45°29' E 019°01'2 4.8
2018-Jul-10 23:01N 45°28' E 018°59'3 6.2
2018-Jul-10 22:30N 45°25' E 019°02'3 6.0
2018-Jul-10 22:00N 45°23' E 018°58'3 6.3
2018-Jul-10 21:30N 45°21' E 019°01'3 6.5
2018-Jul-10 21:01N 45°20' E 019°06'3 6.1
2018-Jul-10 20:30N 45°17' E 019°07'3 6.7
2018-Jul-10 20:00N 45°16' E 019°12'4 6.2
2018-Jul-10 19:21N 45°14' E 019°17'3 6.8
2018-Jul-10 18:55N 45°14' E 019°21'3 6.6
2018-Jul-10 18:30N 45°14' E 019°25'11 5.5
2018-Jul-10 16:34N 45°13' E 019°40'1 6.5
2018-Jul-10 16:28N 45°14' E 019°41'3 6.4
2018-Jul-10 16:00N 45°14' E 019°45'3 6.4
2018-Jul-10 15:30N 45°13' E 019°50'3 6.0
2018-Jul-10 15:01N 45°16' E 019°52'3 6.5
2018-Jul-10 14:30N 45°14' E 019°56'4 7.1
2018-Jul-10 14:00N 45°11' E 019°59'4 7.2
2018-Jul-10 13:30N 45°10' E 020°04'3 6.1
2018-Jul-10 13:00N 45°10' E 020°08'3 5.3
2018-Jul-10 12:30N 45°11' E 020°12'5 6.6
2018-Jul-10 11:49N 45°08' E 020°17'2 7.0
2018-Jul-10 11:29N 45°06' E 020°18'3 6.7
2018-Jul-10 11:00N 45°03' E 020°21'3 6.3
2018-Jul-10 10:30N 45°00' E 020°21'3 6.5
2018-Jul-10 10:00N 44°59' E 020°17'3 6.8
2018-Jul-10 09:30N 44°56' E 020°19'4 7.3
2018-Jul-10 08:59N 44°52' E 020°22'4 7.7
2018-Jul-10 08:31N 44°50' E 020°26'2 3.3
2018-Jul-10 08:01N 44°50' E 020°29'0 0.0
2018-Jul-10 07:30N 44°50' E 020°29'1 2.9
2018-Jul-10 07:01N 44°49' E 020°27'4 8.4
2018-Jul-10 06:31N 44°47' E 020°22'4 8.9
2018-Jul-10 06:01N 44°43' E 020°18'0 0.3
2018-Jul-10 05:29N 44°43' E 020°18'0 0.0
2018-Jul-10 03:09N 44°43' E 020°18'0 0.0
2018-Jul-10 03:00N 44°43' E 020°18'0 0.0
2018-Jul-10 02:23N 44°43' E 020°19'0 0.0
2018-Jul-10 01:59N 44°43' E 020°18'0 0.0
2018-Jul-10 01:31N 44°43' E 020°18'0 0.0
2018-Jul-10 01:00N 44°43' E 020°18'0 0.0
2018-Jul-10 00:23N 44°43' E 020°18'0 0.0
2018-Jul-09 23:57N 44°43' E 020°18'0 0.0
2018-Jul-09 23:23N 44°43' E 020°18'0 0.0
2018-Jul-09 17:54N 44°43' E 020°18'0 0.0
2018-Jul-09 17:24N 44°43' E 020°18'0 0.0
2018-Jul-09 16:57N 44°43' E 020°18'0 0.0
2018-Jul-09 16:30N 44°43' E 020°18'0 0.0
2018-Jul-09 16:01N 44°43' E 020°18'0 0.0
2018-Jul-09 15:30N 44°43' E 020°18'0 0.0
2018-Jul-09 15:00N 44°43' E 020°18'0 0.0
2018-Jul-09 14:30N 44°43' E 020°18'0 0.0
2018-Jul-09 14:01N 44°43' E 020°18'0 0.0
2018-Jul-09 13:31N 44°43' E 020°18'1 1.1
2018-Jul-09 13:00N 44°43' E 020°18'3 6.6
2018-Jul-09 12:30N 44°46' E 020°21'3 6.3
2018-Jul-09 12:00N 44°48' E 020°25'3 5.2
2018-Jul-09 11:31N 44°50' E 020°27'1 2.3
2018-Jul-09 11:00N 44°50' E 020°29'1 3.0
2018-Jul-09 10:31N 44°50' E 020°31'3 6.7
2018-Jul-09 10:01N 44°51' E 020°35'3 5.0
2018-Jul-09 09:30N 44°50' E 020°38'0 0.0
2018-Jul-09 08:58N 44°50' E 020°38'0 0.0
2018-Jul-09 00:32N 44°50' E 020°38'0 0.1
2018-Jul-09 00:29N 44°50' E 020°38'0 0.0
2018-Jul-08 23:58N 44°50' E 020°38'0 0.0
2018-Jul-08 23:29N 44°50' E 020°38'0 0.0
2018-Jul-08 23:00N 44°50' E 020°38'0 0.0
2018-Jul-08 22:09N 44°50' E 020°38'0 0.0
2018-Jul-08 21:54N 44°50' E 020°38'0 0.0
2018-Jul-08 21:30N 44°50' E 020°38'0 0.0
2018-Jul-08 20:56N 44°50' E 020°38'0 0.0
2018-Jul-08 20:30N 44°50' E 020°38'0 0.0
2018-Jul-08 20:00N 44°50' E 020°38'0 0.0
2018-Jul-08 19:28N 44°50' E 020°38'0 0.0
2018-Jul-08 18:59N 44°50' E 020°38'0 0.0
2018-Jul-08 18:29N 44°50' E 020°38'0 0.0
2018-Jul-08 17:57N 44°50' E 020°38'0 0.0
2018-Jul-08 17:24N 44°50' E 020°38'0 0.0
2018-Jul-08 17:00N 44°50' E 020°38'0 0.0
2018-Jul-08 16:26N 44°50' E 020°38'0 0.0
2018-Jul-08 15:56N 44°50' E 020°38'0 0.0
2018-Jul-08 15:31N 44°50' E 020°38'2 3.1
2018-Jul-08 15:00N 44°49' E 020°38'3 6.3
2018-Jul-08 14:30N 44°46' E 020°38'3 6.4
2018-Jul-08 14:00N 44°43' E 020°41'3 6.6
2018-Jul-08 13:30N 44°41' E 020°44'3 6.3
2018-Jul-08 13:00N 44°39' E 020°48'3 6.5
2018-Jul-08 12:30N 44°40' E 020°53'3 6.2
2018-Jul-08 12:00N 44°41' E 020°56'3 6.2
2018-Jul-08 11:28N 44°43' E 021°00'44 3.2
2018-Jul-07 21:58N 44°36' E 022°01'3 6.6
2018-Jul-07 21:31N 44°33' E 022°02'3 6.9
2018-Jul-07 21:01N 44°30' E 022°05'4 7.4
2018-Jul-07 20:30N 44°28' E 022°09'  
Track history (hours):
 
Tides and Currents Weather Stations Pressure Air Temp Water Temp Dewpoint Dewpoint Depression Visibility Wind Speed Wind Dir Waves Ship Positions

Aristotel

Last reported at 2018-Jul-14 23:27 UTC. Time now 2018-Jul-20 08:23 UTC.
Position N 44°30' E 022°12'.

Length 110 m; draft 0.2 m.

Type: Tanker. MMSI: 264163156.

Date/timePositionNaut miles runAvg speedWind from/ knotsBaromVisibWave heightAir tempDewpointWater temp
2018-Jul-14 23:27N 44°30' E 022°12'3 7.4
2018-Jul-14 23:01N 44°28' E 022°08'4 8.5
2018-Jul-14 22:31N 44°32' E 022°04'4 8.4
2018-Jul-14 22:00N 44°35' E 022°02'15 8.6
2018-Jul-14 20:15N 44°40' E 021°41'312.5
2018-Jul-14 20:01N 44°42' E 021°39'3 6.8
2018-Jul-14 19:31N 44°45' E 021°36'21 3.1
2018-Jul-14 12:39N 44°44' E 021°06'1 9.3
2018-Jul-14 12:30N 44°43' E 021°04'3 6.9
2018-Jul-14 12:00N 44°43' E 020°59'4 9.0
2018-Jul-14 11:31N 44°40' E 020°55'5 9.4
2018-Jul-14 11:00N 44°39' E 020°48'5 9.2
2018-Jul-14 10:30N 44°42' E 020°42'5 9.5
2018-Jul-14 10:01N 44°45' E 020°38'4 8.6
2018-Jul-14 09:31N 44°50' E 020°39'4 7.8
2018-Jul-14 09:01N 44°51' E 020°33'4 8.1
2018-Jul-14 08:31N 44°50' E 020°28'5 9.3
2018-Jul-14 08:00N 44°52' E 020°22'5 9.4
2018-Jul-14 07:30N 44°56' E 020°19'4 7.4
2018-Jul-14 07:00N 44°60' E 020°19'4 7.5
2018-Jul-14 06:30N 45°03' E 020°21'8 9.3
2018-Jul-14 05:38N 45°10' E 020°14'1 9.2
2018-Jul-14 05:29N 45°11' E 020°12'4 8.7
2018-Jul-14 04:59N 45°10' E 020°06'5 9.4
2018-Jul-14 04:30N 45°11' E 019°60'5 9.2
2018-Jul-14 04:01N 45°14' E 019°55'3 5.5
2018-Jul-14 03:31N 45°15' E 019°52'4 8.4
2018-Jul-14 03:01N 45°14' E 019°46'14 8.2
2018-Jul-14 01:20N 45°14' E 019°26'3 9.7
2018-Jul-14 01:00N 45°14' E 019°22'5 9.7
2018-Jul-14 00:30N 45°15' E 019°15'5 9.8
2018-Jul-14 00:01N 45°17' E 019°09'4 8.6
2018-Jul-13 23:30N 45°20' E 019°05'5 9.3
2018-Jul-13 23:00N 45°22' E 018°59'3 6.4
2018-Jul-13 22:31N 45°25' E 019°02'4 8.3
2018-Jul-13 22:01N 45°28' E 018°59'4 7.2
2018-Jul-13 21:31N 45°29' E 019°04'3 5.9
2018-Jul-13 21:01N 45°32' E 019°03'3 6.5
2018-Jul-13 20:31N 45°32' E 018°58'4 8.4
2018-Jul-13 20:00N 45°34' E 018°53'4 8.0
2018-Jul-13 19:31N 45°38' E 018°56'3 6.6
2018-Jul-13 19:00N 45°41' E 018°56'  
2018-Jul-11 08:10N 45°56' E 018°47'2 6.1
2018-Jul-11 07:51N 45°54' E 018°49'2 5.9
2018-Jul-11 07:28N 45°52' E 018°50'2 0.8
2018-Jul-11 05:21N 45°51' E 018°52'1 3.3
2018-Jul-11 04:57N 45°50' E 018°51'2 4.7
2018-Jul-11 04:31N 45°48' E 018°51'3 5.9
2018-Jul-11 04:01N 45°45' E 018°54'3 6.7
2018-Jul-11 03:31N 45°42' E 018°55'3 6.2
2018-Jul-11 03:01N 45°40' E 018°58'3 6.5
2018-Jul-11 02:31N 45°37' E 018°55'3 6.2
2018-Jul-11 02:01N 45°34' E 018°53'3 6.1
2018-Jul-11 01:31N 45°32' E 018°56'3 5.9
2018-Jul-11 01:01N 45°33' E 019°00'2 4.7
2018-Jul-11 00:31N 45°32' E 019°03'3 5.3
2018-Jul-11 00:00N 45°30' E 019°06'3 6.2
2018-Jul-10 23:31N 45°29' E 019°01'2 4.8
2018-Jul-10 23:01N 45°28' E 018°59'3 6.2
2018-Jul-10 22:30N 45°25' E 019°02'3 6.0
2018-Jul-10 22:00N 45°23' E 018°58'3 6.3
2018-Jul-10 21:30N 45°21' E 019°01'3 6.5
2018-Jul-10 21:01N 45°20' E 019°06'3 6.1
2018-Jul-10 20:30N 45°17' E 019°07'3 6.7
2018-Jul-10 20:00N 45°16' E 019°12'4 6.2
2018-Jul-10 19:21N 45°14' E 019°17'3 6.8
2018-Jul-10 18:55N 45°14' E 019°21'3 6.6
2018-Jul-10 18:30N 45°14' E 019°25'11 5.5
2018-Jul-10 16:34N 45°13' E 019°40'1 6.5
2018-Jul-10 16:28N 45°14' E 019°41'3 6.4
2018-Jul-10 16:00N 45°14' E 019°45'3 6.4
2018-Jul-10 15:30N 45°13' E 019°50'3 6.0
2018-Jul-10 15:01N 45°16' E 019°52'3 6.5
2018-Jul-10 14:30N 45°14' E 019°56'4 7.1
2018-Jul-10 14:00N 45°11' E 019°59'4 7.2
2018-Jul-10 13:30N 45°10' E 020°04'3 6.1
2018-Jul-10 13:00N 45°10' E 020°08'3 5.3
2018-Jul-10 12:30N 45°11' E 020°12'5 6.6
2018-Jul-10 11:49N 45°08' E 020°17'2 7.0
2018-Jul-10 11:29N 45°06' E 020°18'3 6.7
2018-Jul-10 11:00N 45°03' E 020°21'3 6.3
2018-Jul-10 10:30N 45°00' E 020°21'3 6.5
2018-Jul-10 10:00N 44°59' E 020°17'3 6.8
2018-Jul-10 09:30N 44°56' E 020°19'4 7.3
2018-Jul-10 08:59N 44°52' E 020°22'4 7.7
2018-Jul-10 08:31N 44°50' E 020°26'2 3.3
2018-Jul-10 08:01N 44°50' E 020°29'0 0.0
2018-Jul-10 07:30N 44°50' E 020°29'1 2.9
2018-Jul-10 07:01N 44°49' E 020°27'4 8.4
2018-Jul-10 06:31N 44°47' E 020°22'4 8.9
2018-Jul-10 06:01N 44°43' E 020°18'0 0.3
2018-Jul-10 05:29N 44°43' E 020°18'0 0.0
2018-Jul-10 03:09N 44°43' E 020°18'0 0.0
2018-Jul-10 03:00N 44°43' E 020°18'0 0.0
2018-Jul-10 02:23N 44°43' E 020°19'0 0.0
2018-Jul-10 01:59N 44°43' E 020°18'0 0.0
2018-Jul-10 01:31N 44°43' E 020°18'0 0.0
2018-Jul-10 01:00N 44°43' E 020°18'0 0.0
2018-Jul-10 00:23N 44°43' E 020°18'0 0.0
2018-Jul-09 23:57N 44°43' E 020°18'0 0.0
2018-Jul-09 23:23N 44°43' E 020°18'0 0.0
2018-Jul-09 17:54N 44°43' E 020°18'0 0.0
2018-Jul-09 17:24N 44°43' E 020°18'0 0.0
2018-Jul-09 16:57N 44°43' E 020°18'0 0.0
2018-Jul-09 16:30N 44°43' E 020°18'0 0.0
2018-Jul-09 16:01N 44°43' E 020°18'0 0.0
2018-Jul-09 15:30N 44°43' E 020°18'0 0.0
2018-Jul-09 15:00N 44°43' E 020°18'0 0.0
2018-Jul-09 14:30N 44°43' E 020°18'0 0.0
2018-Jul-09 14:01N 44°43' E 020°18'0 0.0
2018-Jul-09 13:31N 44°43' E 020°18'1 1.1
2018-Jul-09 13:00N 44°43' E 020°18'3 6.6
2018-Jul-09 12:30N 44°46' E 020°21'3 6.3
2018-Jul-09 12:00N 44°48' E 020°25'3 5.2
2018-Jul-09 11:31N 44°50' E 020°27'1 2.3
2018-Jul-09 11:00N 44°50' E 020°29'1 3.0
2018-Jul-09 10:31N 44°50' E 020°31'3 6.7
2018-Jul-09 10:01N 44°51' E 020°35'3 5.0
2018-Jul-09 09:30N 44°50' E 020°38'0 0.0
2018-Jul-09 08:58N 44°50' E 020°38'0 0.0
2018-Jul-09 00:32N 44°50' E 020°38'0 0.1
2018-Jul-09 00:29N 44°50' E 020°38'0 0.0
2018-Jul-08 23:58N 44°50' E 020°38'0 0.0
2018-Jul-08 23:29N 44°50' E 020°38'0 0.0
2018-Jul-08 23:00N 44°50' E 020°38'0 0.0
2018-Jul-08 22:09N 44°50' E 020°38'0 0.0
2018-Jul-08 21:54N 44°50' E 020°38'0 0.0
2018-Jul-08 21:30N 44°50' E 020°38'0 0.0
2018-Jul-08 20:56N 44°50' E 020°38'0 0.0
2018-Jul-08 20:30N 44°50' E 020°38'0 0.0
2018-Jul-08 20:00N 44°50' E 020°38'0 0.0
2018-Jul-08 19:28N 44°50' E 020°38'0 0.0
2018-Jul-08 18:59N 44°50' E 020°38'0 0.0
2018-Jul-08 18:29N 44°50' E 020°38'0 0.0
2018-Jul-08 17:57N 44°50' E 020°38'0 0.0
2018-Jul-08 17:24N 44°50' E 020°38'0 0.0
2018-Jul-08 17:00N 44°50' E 020°38'0 0.0
2018-Jul-08 16:26N 44°50' E 020°38'0 0.0
2018-Jul-08 15:56N 44°50' E 020°38'0 0.0
2018-Jul-08 15:31N 44°50' E 020°38'2 3.1
2018-Jul-08 15:00N 44°49' E 020°38'3 6.3
2018-Jul-08 14:30N 44°46' E 020°38'3 6.4
2018-Jul-08 14:00N 44°43' E 020°41'3 6.6
2018-Jul-08 13:30N 44°41' E 020°44'3 6.3
2018-Jul-08 13:00N 44°39' E 020°48'3 6.5
2018-Jul-08 12:30N 44°40' E 020°53'3 6.2
2018-Jul-08 12:00N 44°41' E 020°56'3 6.2
2018-Jul-08 11:28N 44°43' E 021°00'44 3.2
2018-Jul-07 21:58N 44°36' E 022°01'3 6.6
2018-Jul-07 21:31N 44°33' E 022°02'3 6.9
2018-Jul-07 21:01N 44°30' E 022°05'4 7.4
2018-Jul-07 20:30N 44°28' E 022°09'  

Dump ship's entire track history